sensor_id;sensor_type;location;lat;lon;timestamp;temperature;humidity
9393;DHT22;4736;52.508;13.422;2022-07-29T00:02:22;17.20;1.00
9393;DHT22;4736;52.508;13.422;2022-07-29T00:05:25;17.20;1.00
9393;DHT22;4736;52.508;13.422;2022-07-29T00:08:28;17.10;1.00
9393;DHT22;4736;52.508;13.422;2022-07-29T00:11:33;17.10;1.00
9393;DHT22;4736;52.508;13.422;2022-07-29T00:14:36;17.10;1.00
9393;DHT22;4736;52.508;13.422;2022-07-29T00:17:38;17.00;1.00
9393;DHT22;4736;52.508;13.422;2022-07-29T00:20:41;17.00;1.00
9393;DHT22;4736;52.508;13.422;2022-07-29T00:23:44;16.90;1.00
9393;DHT22;4736;52.508;13.422;2022-07-29T00:26:49;16.90;1.00
9393;DHT22;4736;52.508;13.422;2022-07-29T00:29:52;16.90;1.00
9393;DHT22;4736;52.508;13.422;2022-07-29T00:32:55;16.90;1.00
9393;DHT22;4736;52.508;13.422;2022-07-29T00:35:58;16.80;1.00
9393;DHT22;4736;52.508;13.422;2022-07-29T00:39:00;16.80;1.00
9393;DHT22;4736;52.508;13.422;2022-07-29T00:42:05;16.80;1.00
9393;DHT22;4736;52.508;13.422;2022-07-29T00:45:08;16.80;1.00
9393;DHT22;4736;52.508;13.422;2022-07-29T00:48:12;16.70;1.00
9393;DHT22;4736;52.508;13.422;2022-07-29T00:51:15;16.70;1.00
9393;DHT22;4736;52.508;13.422;2022-07-29T00:54:18;16.70;1.00
9393;DHT22;4736;52.508;13.422;2022-07-29T00:57:22;16.60;1.00
9393;DHT22;4736;52.508;13.422;2022-07-29T01:00:27;16.60;1.00
9393;DHT22;4736;52.508;13.422;2022-07-29T01:03:30;16.60;1.00
9393;DHT22;4736;52.508;13.422;2022-07-29T01:06:34;16.60;1.00
9393;DHT22;4736;52.508;13.422;2022-07-29T01:09:37;16.60;1.00
9393;DHT22;4736;52.508;13.422;2022-07-29T01:12:50;16.50;1.00
9393;DHT22;4736;52.508;13.422;2022-07-29T01:15:57;16.50;1.00
9393;DHT22;4736;52.508;13.422;2022-07-29T01:19:07;16.60;1.00
9393;DHT22;4736;52.508;13.422;2022-07-29T01:22:28;16.50;1.00
9393;DHT22;4736;52.508;13.422;2022-07-29T01:25:48;16.50;1.00
9393;DHT22;4736;52.508;13.422;2022-07-29T01:29:02;16.60;1.00
9393;DHT22;4736;52.508;13.422;2022-07-29T01:32:11;16.50;1.00
9393;DHT22;4736;52.508;13.422;2022-07-29T01:35:34;16.50;1.00
9393;DHT22;4736;52.508;13.422;2022-07-29T01:38:39;16.50;1.00
9393;DHT22;4736;52.508;13.422;2022-07-29T01:41:49;16.40;1.00
9393;DHT22;4736;52.508;13.422;2022-07-29T01:44:58;16.50;1.00
9393;DHT22;4736;52.508;13.422;2022-07-29T01:48:06;16.50;1.00
9393;DHT22;4736;52.508;13.422;2022-07-29T01:51:14;16.50;1.00
9393;DHT22;4736;52.508;13.422;2022-07-29T01:54:21;16.50;1.00
9393;DHT22;4736;52.508;13.422;2022-07-29T01:57:28;16.40;1.00
9393;DHT22;4736;52.508;13.422;2022-07-29T02:00:34;16.30;1.00
9393;DHT22;4736;52.508;13.422;2022-07-29T02:03:39;16.30;1.00
9393;DHT22;4736;52.508;13.422;2022-07-29T02:06:45;16.40;1.00
9393;DHT22;4736;52.508;13.422;2022-07-29T02:09:51;16.30;1.00
9393;DHT22;4736;52.508;13.422;2022-07-29T02:12:57;16.30;1.00
9393;DHT22;4736;52.508;13.422;2022-07-29T02:16:02;16.30;1.00
9393;DHT22;4736;52.508;13.422;2022-07-29T02:19:08;16.20;1.00
9393;DHT22;4736;52.508;13.422;2022-07-29T02:22:13;16.20;1.00
9393;DHT22;4736;52.508;13.422;2022-07-29T02:25:17;16.20;1.00
9393;DHT22;4736;52.508;13.422;2022-07-29T02:28:22;16.20;1.00
9393;DHT22;4736;52.508;13.422;2022-07-29T02:31:30;16.10;1.00
9393;DHT22;4736;52.508;13.422;2022-07-29T02:34:35;16.10;1.00
9393;DHT22;4736;52.508;13.422;2022-07-29T02:37:41;16.10;1.00
9393;DHT22;4736;52.508;13.422;2022-07-29T02:40:47;16.10;1.00
9393;DHT22;4736;52.508;13.422;2022-07-29T02:43:54;16.10;1.00
9393;DHT22;4736;52.508;13.422;2022-07-29T02:47:06;16.00;1.00
9393;DHT22;4736;52.508;13.422;2022-07-29T02:50:13;16.10;1.00
9393;DHT22;4736;52.508;13.422;2022-07-29T02:53:19;16.00;1.00
9393;DHT22;4736;52.508;13.422;2022-07-29T02:56:25;16.00;1.00
9393;DHT22;4736;52.508;13.422;2022-07-29T02:59:30;16.10;1.00
9393;DHT22;4736;52.508;13.422;2022-07-29T03:02:40;16.00;1.00
9393;DHT22;4736;52.508;13.422;2022-07-29T03:05:44;16.10;1.00
9393;DHT22;4736;52.508;13.422;2022-07-29T03:08:48;16.10;1.00
9393;DHT22;4736;52.508;13.422;2022-07-29T03:11:52;16.10;1.00
9393;DHT22;4736;52.508;13.422;2022-07-29T03:14:56;16.20;1.00
9393;DHT22;4736;52.508;13.422;2022-07-29T03:18:02;16.10;1.00
9393;DHT22;4736;52.508;13.422;2022-07-29T03:21:05;16.10;1.00
9393;DHT22;4736;52.508;13.422;2022-07-29T03:24:24;16.10;1.00
9393;DHT22;4736;52.508;13.422;2022-07-29T03:27:27;16.10;1.00
9393;DHT22;4736;52.508;13.422;2022-07-29T03:30:30;16.10;1.00
9393;DHT22;4736;52.508;13.422;2022-07-29T03:33:34;16.10;1.00
9393;DHT22;4736;52.508;13.422;2022-07-29T03:36:37;16.10;1.00
9393;DHT22;4736;52.508;13.422;2022-07-29T03:39:43;16.20;1.00
9393;DHT22;4736;52.508;13.422;2022-07-29T03:42:47;16.20;1.00
9393;DHT22;4736;52.508;13.422;2022-07-29T03:45:53;16.10;1.00
9393;DHT22;4736;52.508;13.422;2022-07-29T03:49:00;16.10;1.00
9393;DHT22;4736;52.508;13.422;2022-07-29T03:52:04;16.10;1.00
9393;DHT22;4736;52.508;13.422;2022-07-29T03:55:09;16.10;1.00
9393;DHT22;4736;52.508;13.422;2022-07-29T03:58:13;16.10;1.00
9393;DHT22;4736;52.508;13.422;2022-07-29T04:01:16;16.10;1.00
9393;DHT22;4736;52.508;13.422;2022-07-29T04:04:22;16.30;1.00
9393;DHT22;4736;52.508;13.422;2022-07-29T04:07:27;16.30;1.00
9393;DHT22;4736;52.508;13.422;2022-07-29T04:10:31;16.20;1.00
9393;DHT22;4736;52.508;13.422;2022-07-29T04:13:36;16.20;1.00
9393;DHT22;4736;52.508;13.422;2022-07-29T04:16:39;16.20;1.00
9393;DHT22;4736;52.508;13.422;2022-07-29T04:19:43;16.30;1.00
9393;DHT22;4736;52.508;13.422;2022-07-29T04:22:46;16.30;1.00
9393;DHT22;4736;52.508;13.422;2022-07-29T04:25:49;16.40;1.00
9393;DHT22;4736;52.508;13.422;2022-07-29T04:28:52;16.40;1.00
9393;DHT22;4736;52.508;13.422;2022-07-29T04:31:55;16.50;1.00
9393;DHT22;4736;52.508;13.422;2022-07-29T04:34:59;16.50;1.00
9393;DHT22;4736;52.508;13.422;2022-07-29T04:38:03;16.60;1.00
9393;DHT22;4736;52.508;13.422;2022-07-29T04:41:06;16.70;1.00
9393;DHT22;4736;52.508;13.422;2022-07-29T04:44:11;16.70;1.00
9393;DHT22;4736;52.508;13.422;2022-07-29T04:47:15;16.60;1.00
9393;DHT22;4736;52.508;13.422;2022-07-29T04:50:19;16.70;1.00
9393;DHT22;4736;52.508;13.422;2022-07-29T04:53:22;16.70;1.00
9393;DHT22;4736;52.508;13.422;2022-07-29T04:56:25;16.70;1.00
9393;DHT22;4736;52.508;13.422;2022-07-29T04:59:28;16.80;1.00
9393;DHT22;4736;52.508;13.422;2022-07-29T05:02:31;16.80;1.00
9393;DHT22;4736;52.508;13.422;2022-07-29T05:05:36;16.80;1.00
9393;DHT22;4736;52.508;13.422;2022-07-29T05:08:39;16.90;1.00
9393;DHT22;4736;52.508;13.422;2022-07-29T05:11:42;17.00;1.00
9393;DHT22;4736;52.508;13.422;2022-07-29T05:14:45;17.00;1.00
9393;DHT22;4736;52.508;13.422;2022-07-29T05:17:48;17.10;1.00
9393;DHT22;4736;52.508;13.422;2022-07-29T05:20:52;17.20;1.00
9393;DHT22;4736;52.508;13.422;2022-07-29T05:23:55;17.40;1.00
9393;DHT22;4736;52.508;13.422;2022-07-29T05:26:58;17.50;1.00
9393;DHT22;4736;52.508;13.422;2022-07-29T05:30:01;17.60;1.00
9393;DHT22;4736;52.508;13.422;2022-07-29T05:33:04;17.70;1.00
9393;DHT22;4736;52.508;13.422;2022-07-29T05:36:09;17.70;1.00
9393;DHT22;4736;52.508;13.422;2022-07-29T05:39:12;17.80;1.00
9393;DHT22;4736;52.508;13.422;2022-07-29T05:42:15;17.80;1.00
9393;DHT22;4736;52.508;13.422;2022-07-29T05:45:18;17.80;1.00
9393;DHT22;4736;52.508;13.422;2022-07-29T05:48:22;17.90;1.00
9393;DHT22;4736;52.508;13.422;2022-07-29T05:51:26;17.90;1.00
9393;DHT22;4736;52.508;13.422;2022-07-29T05:54:29;17.90;1.00
9393;DHT22;4736;52.508;13.422;2022-07-29T05:57:32;17.90;1.00
9393;DHT22;4736;52.508;13.422;2022-07-29T06:00:35;18.00;1.00
9393;DHT22;4736;52.508;13.422;2022-07-29T06:03:38;18.00;1.00
9393;DHT22;4736;52.508;13.422;2022-07-29T06:06:44;18.20;1.00
9393;DHT22;4736;52.508;13.422;2022-07-29T06:09:47;18.50;1.00
9393;DHT22;4736;52.508;13.422;2022-07-29T06:12:50;18.80;1.00
9393;DHT22;4736;52.508;13.422;2022-07-29T06:15:53;19.00;1.00
9393;DHT22;4736;52.508;13.422;2022-07-29T06:18:56;19.20;1.00
9393;DHT22;4736;52.508;13.422;2022-07-29T06:22:00;19.20;1.00
9393;DHT22;4736;52.508;13.422;2022-07-29T06:25:04;19.40;1.00
9393;DHT22;4736;52.508;13.422;2022-07-29T06:28:07;19.70;1.00
9393;DHT22;4736;52.508;13.422;2022-07-29T06:31:10;19.80;1.00
9393;DHT22;4736;52.508;13.422;2022-07-29T06:34:13;20.10;1.00
9393;DHT22;4736;52.508;13.422;2022-07-29T06:37:17;20.20;1.00
9393;DHT22;4736;52.508;13.422;2022-07-29T06:40:20;20.30;1.00
9393;DHT22;4736;52.508;13.422;2022-07-29T06:43:53;20.50;1.00
9393;DHT22;4736;52.508;13.422;2022-07-29T06:46:57;20.50;1.00
9393;DHT22;4736;52.508;13.422;2022-07-29T06:50:00;20.50;1.00
9393;DHT22;4736;52.508;13.422;2022-07-29T06:53:09;20.50;1.00
9393;DHT22;4736;52.508;13.422;2022-07-29T06:56:13;20.60;1.00
9393;DHT22;4736;52.508;13.422;2022-07-29T06:59:16;20.50;1.00
9393;DHT22;4736;52.508;13.422;2022-07-29T07:02:19;20.60;1.00
9393;DHT22;4736;52.508;13.422;2022-07-29T07:05:22;20.60;1.00
9393;DHT22;4736;52.508;13.422;2022-07-29T07:08:26;20.60;1.00
9393;DHT22;4736;52.508;13.422;2022-07-29T07:11:29;20.70;1.00
9393;DHT22;4736;52.508;13.422;2022-07-29T07:14:32;20.80;1.00
9393;DHT22;4736;52.508;13.422;2022-07-29T07:17:35;21.00;1.00
9393;DHT22;4736;52.508;13.422;2022-07-29T07:20:39;21.30;1.00
9393;DHT22;4736;52.508;13.422;2022-07-29T07:23:43;21.50;1.00
9393;DHT22;4736;52.508;13.422;2022-07-29T07:26:46;21.70;1.00
9393;DHT22;4736;52.508;13.422;2022-07-29T07:29:49;21.70;1.00
9393;DHT22;4736;52.508;13.422;2022-07-29T07:32:52;21.90;1.00
9393;DHT22;4736;52.508;13.422;2022-07-29T07:35:55;22.00;1.00
9393;DHT22;4736;52.508;13.422;2022-07-29T07:38:59;22.00;1.00
9393;DHT22;4736;52.508;13.422;2022-07-29T07:42:03;22.10;1.00
9393;DHT22;4736;52.508;13.422;2022-07-29T07:45:07;22.20;1.00
9393;DHT22;4736;52.508;13.422;2022-07-29T07:48:17;22.40;1.00
9393;DHT22;4736;52.508;13.422;2022-07-29T07:51:20;22.60;1.00
9393;DHT22;4736;52.508;13.422;2022-07-29T07:54:24;22.80;1.00
9393;DHT22;4736;52.508;13.422;2022-07-29T07:57:27;22.80;1.00
9393;DHT22;4736;52.508;13.422;2022-07-29T08:00:30;23.00;1.00
9393;DHT22;4736;52.508;13.422;2022-07-29T08:03:34;23.00;1.00
9393;DHT22;4736;52.508;13.422;2022-07-29T08:06:37;23.10;1.00
9393;DHT22;4736;52.508;13.422;2022-07-29T08:09:41;23.10;1.00
9393;DHT22;4736;52.508;13.422;2022-07-29T08:12:44;23.30;1.00
9393;DHT22;4736;52.508;13.422;2022-07-29T08:15:47;23.40;1.00
9393;DHT22;4736;52.508;13.422;2022-07-29T08:18:59;23.40;1.00
9393;DHT22;4736;52.508;13.422;2022-07-29T08:22:02;23.50;1.00
9393;DHT22;4736;52.508;13.422;2022-07-29T08:25:07;23.50;1.00
9393;DHT22;4736;52.508;13.422;2022-07-29T08:28:10;23.70;1.00
9393;DHT22;4736;52.508;13.422;2022-07-29T08:31:13;23.70;1.00
9393;DHT22;4736;52.508;13.422;2022-07-29T08:34:16;23.70;1.00
9393;DHT22;4736;52.508;13.422;2022-07-29T08:37:26;23.90;1.00
9393;DHT22;4736;52.508;13.422;2022-07-29T08:40:30;23.80;1.00
9393;DHT22;4736;52.508;13.422;2022-07-29T08:43:33;24.00;1.00
9393;DHT22;4736;52.508;13.422;2022-07-29T08:46:39;23.90;1.00
9393;DHT22;4736;52.508;13.422;2022-07-29T08:49:42;24.00;1.00
9393;DHT22;4736;52.508;13.422;2022-07-29T08:52:47;24.10;1.00
9393;DHT22;4736;52.508;13.422;2022-07-29T08:55:53;24.20;1.00
9393;DHT22;4736;52.508;13.422;2022-07-29T08:58:58;24.30;1.00
9393;DHT22;4736;52.508;13.422;2022-07-29T09:02:12;24.30;1.00
9393;DHT22;4736;52.508;13.422;2022-07-29T09:05:18;24.20;1.00
9393;DHT22;4736;52.508;13.422;2022-07-29T09:08:22;24.10;1.00
9393;DHT22;4736;52.508;13.422;2022-07-29T09:11:27;24.00;1.00
9393;DHT22;4736;52.508;13.422;2022-07-29T09:14:30;24.10;1.00
9393;DHT22;4736;52.508;13.422;2022-07-29T09:17:39;24.20;1.00
9393;DHT22;4736;52.508;13.422;2022-07-29T09:20:51;24.50;1.00
9393;DHT22;4736;52.508;13.422;2022-07-29T09:24:13;24.80;1.00
9393;DHT22;4736;52.508;13.422;2022-07-29T09:27:23;25.10;1.00
9393;DHT22;4736;52.508;13.422;2022-07-29T09:30:27;25.30;1.00
9393;DHT22;4736;52.508;13.422;2022-07-29T09:33:33;25.40;1.00
9393;DHT22;4736;52.508;13.422;2022-07-29T09:36:41;25.40;1.00
9393;DHT22;4736;52.508;13.422;2022-07-29T09:39:44;25.50;1.00
9393;DHT22;4736;52.508;13.422;2022-07-29T09:42:50;25.50;1.00
9393;DHT22;4736;52.508;13.422;2022-07-29T09:45:54;25.40;1.00
9393;DHT22;4736;52.508;13.422;2022-07-29T09:49:07;25.40;1.00
9393;DHT22;4736;52.508;13.422;2022-07-29T09:52:11;25.40;1.00
9393;DHT22;4736;52.508;13.422;2022-07-29T09:55:14;25.40;1.00
9393;DHT22;4736;52.508;13.422;2022-07-29T09:58:21;25.50;1.00
9393;DHT22;4736;52.508;13.422;2022-07-29T10:01:27;25.60;1.00
9393;DHT22;4736;52.508;13.422;2022-07-29T10:04:38;25.70;1.00
9393;DHT22;4736;52.508;13.422;2022-07-29T10:07:45;25.80;1.00
9393;DHT22;4736;52.508;13.422;2022-07-29T10:11:09;26.00;1.00
9393;DHT22;4736;52.508;13.422;2022-07-29T10:14:14;26.30;1.00
9393;DHT22;4736;52.508;13.422;2022-07-29T10:17:18;26.60;1.00
9393;DHT22;4736;52.508;13.422;2022-07-29T10:20:23;26.80;1.00
9393;DHT22;4736;52.508;13.422;2022-07-29T10:23:27;27.00;1.00
9393;DHT22;4736;52.508;13.422;2022-07-29T10:26:47;26.90;1.00
9393;DHT22;4736;52.508;13.422;2022-07-29T10:29:53;26.90;1.00
9393;DHT22;4736;52.508;13.422;2022-07-29T10:33:11;27.00;1.00
9393;DHT22;4736;52.508;13.422;2022-07-29T10:36:24;26.90;1.00
9393;DHT22;4736;52.508;13.422;2022-07-29T10:39:41;26.90;1.00
9393;DHT22;4736;52.508;13.422;2022-07-29T10:42:52;27.00;1.00
9393;DHT22;4736;52.508;13.422;2022-07-29T10:45:59;27.10;1.00
9393;DHT22;4736;52.508;13.422;2022-07-29T10:49:11;27.10;1.00
9393;DHT22;4736;52.508;13.422;2022-07-29T10:52:16;27.30;1.00
9393;DHT22;4736;52.508;13.422;2022-07-29T10:55:31;27.40;1.00
9393;DHT22;4736;52.508;13.422;2022-07-29T10:58:36;27.60;1.00
9393;DHT22;4736;52.508;13.422;2022-07-29T11:01:43;27.70;1.00
9393;DHT22;4736;52.508;13.422;2022-07-29T11:05:00;27.70;1.00
9393;DHT22;4736;52.508;13.422;2022-07-29T11:08:27;27.80;1.00
9393;DHT22;4736;52.508;13.422;2022-07-29T11:11:32;27.70;1.00
9393;DHT22;4736;52.508;13.422;2022-07-29T11:14:57;27.60;1.00
9393;DHT22;4736;52.508;13.422;2022-07-29T11:18:09;27.50;1.00
9393;DHT22;4736;52.508;13.422;2022-07-29T11:21:35;27.40;1.00
9393;DHT22;4736;52.508;13.422;2022-07-29T11:25:13;27.30;1.00
9393;DHT22;4736;52.508;13.422;2022-07-29T11:28:20;27.20;1.00
9393;DHT22;4736;52.508;13.422;2022-07-29T11:31:37;27.30;1.00
9393;DHT22;4736;52.508;13.422;2022-07-29T11:34:42;27.50;1.00
9393;DHT22;4736;52.508;13.422;2022-07-29T11:37:46;27.60;1.00
9393;DHT22;4736;52.508;13.422;2022-07-29T11:41:25;27.80;1.00
9393;DHT22;4736;52.508;13.422;2022-07-29T11:44:53;27.80;1.00
9393;DHT22;4736;52.508;13.422;2022-07-29T11:47:57;27.90;1.00
9393;DHT22;4736;52.508;13.422;2022-07-29T11:51:22;27.90;1.00
9393;DHT22;4736;52.508;13.422;2022-07-29T11:54:34;28.10;1.00
9393;DHT22;4736;52.508;13.422;2022-07-29T11:57:59;28.20;1.00
9393;DHT22;4736;52.508;13.422;2022-07-29T12:01:05;28.20;1.00
9393;DHT22;4736;52.508;13.422;2022-07-29T12:04:08;28.20;1.00
9393;DHT22;4736;52.508;13.422;2022-07-29T12:07:12;28.20;1.00
9393;DHT22;4736;52.508;13.422;2022-07-29T12:10:16;28.10;1.00
9393;DHT22;4736;52.508;13.422;2022-07-29T12:13:38;28.10;1.00
9393;DHT22;4736;52.508;13.422;2022-07-29T12:16:41;28.10;1.00
9393;DHT22;4736;52.508;13.422;2022-07-29T12:19:44;28.10;1.00
9393;DHT22;4736;52.508;13.422;2022-07-29T12:22:53;28.00;1.00
9393;DHT22;4736;52.508;13.422;2022-07-29T12:25:58;28.10;1.00
9393;DHT22;4736;52.508;13.422;2022-07-29T12:29:01;28.10;1.00
9393;DHT22;4736;52.508;13.422;2022-07-29T12:32:12;28.20;1.00
9393;DHT22;4736;52.508;13.422;2022-07-29T12:35:20;28.30;1.00
9393;DHT22;4736;52.508;13.422;2022-07-29T12:38:25;28.50;1.00
9393;DHT22;4736;52.508;13.422;2022-07-29T12:41:28;28.50;1.00
9393;DHT22;4736;52.508;13.422;2022-07-29T12:44:45;28.50;1.00
9393;DHT22;4736;52.508;13.422;2022-07-29T12:47:51;28.50;1.00
9393;DHT22;4736;52.508;13.422;2022-07-29T12:50:56;28.50;1.00
9393;DHT22;4736;52.508;13.422;2022-07-29T12:54:05;28.50;1.00
9393;DHT22;4736;52.508;13.422;2022-07-29T12:57:09;28.50;1.00
9393;DHT22;4736;52.508;13.422;2022-07-29T13:00:22;28.70;1.00
9393;DHT22;4736;52.508;13.422;2022-07-29T13:03:26;28.90;1.00
9393;DHT22;4736;52.508;13.422;2022-07-29T13:06:38;29.00;1.00
9393;DHT22;4736;52.508;13.422;2022-07-29T13:09:44;29.10;1.00
9393;DHT22;4736;52.508;13.422;2022-07-29T13:13:04;29.30;1.00
9393;DHT22;4736;52.508;13.422;2022-07-29T13:16:07;29.10;1.00
9393;DHT22;4736;52.508;13.422;2022-07-29T13:19:11;28.90;1.00
9393;DHT22;4736;52.508;13.422;2022-07-29T13:22:16;28.60;1.00
9393;DHT22;4736;52.508;13.422;2022-07-29T13:25:26;28.50;1.00
9393;DHT22;4736;52.508;13.422;2022-07-29T13:28:29;28.50;1.00
9393;DHT22;4736;52.508;13.422;2022-07-29T13:31:32;28.60;1.00
9393;DHT22;4736;52.508;13.422;2022-07-29T13:34:35;28.90;1.00
9393;DHT22;4736;52.508;13.422;2022-07-29T13:37:38;29.00;1.00
9393;DHT22;4736;52.508;13.422;2022-07-29T13:40:42;29.10;1.00
9393;DHT22;4736;52.508;13.422;2022-07-29T13:43:45;29.30;1.00
9393;DHT22;4736;52.508;13.422;2022-07-29T13:46:50;29.50;1.00
9393;DHT22;4736;52.508;13.422;2022-07-29T13:49:53;29.70;1.00
9393;DHT22;4736;52.508;13.422;2022-07-29T13:52:57;29.90;1.00
9393;DHT22;4736;52.508;13.422;2022-07-29T13:56:01;30.00;1.00
9393;DHT22;4736;52.508;13.422;2022-07-29T13:59:04;30.10;1.00
9393;DHT22;4736;52.508;13.422;2022-07-29T14:02:08;30.20;1.00
9393;DHT22;4736;52.508;13.422;2022-07-29T14:05:11;30.10;1.00
9393;DHT22;4736;52.508;13.422;2022-07-29T14:08:14;30.00;1.00
9393;DHT22;4736;52.508;13.422;2022-07-29T14:11:19;29.80;1.00
9393;DHT22;4736;52.508;13.422;2022-07-29T14:14:22;29.70;1.00
9393;DHT22;4736;52.508;13.422;2022-07-29T14:17:25;29.80;1.00
9393;DHT22;4736;52.508;13.422;2022-07-29T14:20:28;29.90;1.00
9393;DHT22;4736;52.508;13.422;2022-07-29T14:23:31;30.00;1.00
9393;DHT22;4736;52.508;13.422;2022-07-29T14:26:35;30.10;1.00
9393;DHT22;4736;52.508;13.422;2022-07-29T14:29:38;30.20;1.00
9393;DHT22;4736;52.508;13.422;2022-07-29T14:32:41;30.30;1.00
9393;DHT22;4736;52.508;13.422;2022-07-29T14:35:45;30.20;1.00
9393;DHT22;4736;52.508;13.422;2022-07-29T14:38:48;30.20;1.00
9393;DHT22;4736;52.508;13.422;2022-07-29T14:41:52;30.10;1.00
9393;DHT22;4736;52.508;13.422;2022-07-29T14:44:56;30.10;1.00
9393;DHT22;4736;52.508;13.422;2022-07-29T14:47:59;30.10;1.00
9393;DHT22;4736;52.508;13.422;2022-07-29T14:51:02;30.10;1.00
9393;DHT22;4736;52.508;13.422;2022-07-29T14:54:05;30.00;1.00
9393;DHT22;4736;52.508;13.422;2022-07-29T14:57:10;30.10;1.00
9393;DHT22;4736;52.508;13.422;2022-07-29T15:00:14;30.00;1.00
9393;DHT22;4736;52.508;13.422;2022-07-29T15:03:17;30.00;1.00
9393;DHT22;4736;52.508;13.422;2022-07-29T15:06:25;30.00;1.00
9393;DHT22;4736;52.508;13.422;2022-07-29T15:09:28;30.00;1.00
9393;DHT22;4736;52.508;13.422;2022-07-29T15:12:32;30.00;1.00
9393;DHT22;4736;52.508;13.422;2022-07-29T15:15:35;30.10;1.00
9393;DHT22;4736;52.508;13.422;2022-07-29T15:18:38;30.10;1.00
9393;DHT22;4736;52.508;13.422;2022-07-29T15:21:41;30.00;1.00
9393;DHT22;4736;52.508;13.422;2022-07-29T15:24:49;29.90;1.00
9393;DHT22;4736;52.508;13.422;2022-07-29T15:27:54;29.80;1.00
9393;DHT22;4736;52.508;13.422;2022-07-29T15:31:02;29.80;1.00
9393;DHT22;4736;52.508;13.422;2022-07-29T15:34:05;29.60;1.00
9393;DHT22;4736;52.508;13.422;2022-07-29T15:37:08;29.60;1.00
9393;DHT22;4736;52.508;13.422;2022-07-29T15:40:12;29.60;1.00
9393;DHT22;4736;52.508;13.422;2022-07-29T15:43:16;29.70;1.00
9393;DHT22;4736;52.508;13.422;2022-07-29T15:46:20;29.80;1.00
9393;DHT22;4736;52.508;13.422;2022-07-29T15:49:41;29.90;1.00
9393;DHT22;4736;52.508;13.422;2022-07-29T15:52:49;29.90;1.00
9393;DHT22;4736;52.508;13.422;2022-07-29T15:55:52;30.00;1.00
9393;DHT22;4736;52.508;13.422;2022-07-29T15:58:57;30.10;1.00
9393;DHT22;4736;52.508;13.422;2022-07-29T16:02:01;30.10;1.00
9393;DHT22;4736;52.508;13.422;2022-07-29T16:05:05;30.10;1.00
9393;DHT22;4736;52.508;13.422;2022-07-29T16:08:10;30.00;1.00
9393;DHT22;4736;52.508;13.422;2022-07-29T16:11:13;29.80;1.00
9393;DHT22;4736;52.508;13.422;2022-07-29T16:14:18;29.60;1.00
9393;DHT22;4736;52.508;13.422;2022-07-29T16:17:21;29.40;1.00
9393;DHT22;4736;52.508;13.422;2022-07-29T16:20:24;29.30;1.00
9393;DHT22;4736;52.508;13.422;2022-07-29T16:23:27;29.10;1.00
9393;DHT22;4736;52.508;13.422;2022-07-29T16:26:31;29.00;1.00
9393;DHT22;4736;52.508;13.422;2022-07-29T16:29:35;28.80;1.00
9393;DHT22;4736;52.508;13.422;2022-07-29T16:32:38;28.60;1.00
9393;DHT22;4736;52.508;13.422;2022-07-29T16:35:41;28.50;1.00
9393;DHT22;4736;52.508;13.422;2022-07-29T16:38:45;28.30;1.00
9393;DHT22;4736;52.508;13.422;2022-07-29T16:41:48;28.30;1.00
9393;DHT22;4736;52.508;13.422;2022-07-29T16:44:52;28.10;1.00
9393;DHT22;4736;52.508;13.422;2022-07-29T16:47:55;28.00;1.00
9393;DHT22;4736;52.508;13.422;2022-07-29T16:51:02;27.90;1.00
9393;DHT22;4736;52.508;13.422;2022-07-29T16:54:05;27.80;1.00
9393;DHT22;4736;52.508;13.422;2022-07-29T16:57:09;27.70;1.00
9393;DHT22;4736;52.508;13.422;2022-07-29T17:00:15;27.60;1.00
9393;DHT22;4736;52.508;13.422;2022-07-29T17:03:18;27.60;1.00
9393;DHT22;4736;52.508;13.422;2022-07-29T17:06:21;27.50;1.00
9393;DHT22;4736;52.508;13.422;2022-07-29T17:09:24;27.40;1.00
9393;DHT22;4736;52.508;13.422;2022-07-29T17:12:27;27.40;1.00
9393;DHT22;4736;52.508;13.422;2022-07-29T17:15:31;27.30;1.00
9393;DHT22;4736;52.508;13.422;2022-07-29T17:18:37;27.30;1.00
9393;DHT22;4736;52.508;13.422;2022-07-29T17:21:40;27.30;1.00
9393;DHT22;4736;52.508;13.422;2022-07-29T17:24:50;27.20;1.00
9393;DHT22;4736;52.508;13.422;2022-07-29T17:27:53;27.20;1.00
9393;DHT22;4736;52.508;13.422;2022-07-29T17:31:03;27.20;1.00
9393;DHT22;4736;52.508;13.422;2022-07-29T17:34:06;27.20;1.00
9393;DHT22;4736;52.508;13.422;2022-07-29T17:37:10;27.20;1.00
9393;DHT22;4736;52.508;13.422;2022-07-29T17:40:13;27.10;1.00
9393;DHT22;4736;52.508;13.422;2022-07-29T17:43:16;27.10;1.00
9393;DHT22;4736;52.508;13.422;2022-07-29T17:46:22;26.90;1.00
9393;DHT22;4736;52.508;13.422;2022-07-29T17:49:25;26.80;1.00
9393;DHT22;4736;52.508;13.422;2022-07-29T17:52:28;26.70;1.00
9393;DHT22;4736;52.508;13.422;2022-07-29T17:55:31;26.50;1.00
9393;DHT22;4736;52.508;13.422;2022-07-29T17:58:34;26.40;1.00
9393;DHT22;4736;52.508;13.422;2022-07-29T18:01:39;26.30;1.00
9393;DHT22;4736;52.508;13.422;2022-07-29T18:04:42;26.20;1.00
9393;DHT22;4736;52.508;13.422;2022-07-29T18:07:51;26.10;1.00
9393;DHT22;4736;52.508;13.422;2022-07-29T18:10:56;26.10;1.00
9393;DHT22;4736;52.508;13.422;2022-07-29T18:13:59;26.00;1.00
9393;DHT22;4736;52.508;13.422;2022-07-29T18:17:04;25.90;1.00
9393;DHT22;4736;52.508;13.422;2022-07-29T18:20:08;25.80;1.00
9393;DHT22;4736;52.508;13.422;2022-07-29T18:23:11;25.80;1.00
9393;DHT22;4736;52.508;13.422;2022-07-29T18:26:15;25.70;1.00
9393;DHT22;4736;52.508;13.422;2022-07-29T18:29:18;25.70;1.00
9393;DHT22;4736;52.508;13.422;2022-07-29T18:32:22;25.60;1.00
9393;DHT22;4736;52.508;13.422;2022-07-29T18:35:30;25.60;1.00
9393;DHT22;4736;52.508;13.422;2022-07-29T18:38:34;25.50;1.00
9393;DHT22;4736;52.508;13.422;2022-07-29T18:41:37;25.40;1.00
9393;DHT22;4736;52.508;13.422;2022-07-29T18:44:51;25.30;1.00
9393;DHT22;4736;52.508;13.422;2022-07-29T18:47:56;25.20;1.00
9393;DHT22;4736;52.508;13.422;2022-07-29T18:50:59;25.10;1.00
9393;DHT22;4736;52.508;13.422;2022-07-29T18:54:10;25.20;1.00
9393;DHT22;4736;52.508;13.422;2022-07-29T18:57:13;25.20;1.00
9393;DHT22;4736;52.508;13.422;2022-07-29T19:00:35;25.10;1.00
9393;DHT22;4736;52.508;13.422;2022-07-29T19:03:40;25.10;1.00
9393;DHT22;4736;52.508;13.422;2022-07-29T19:06:43;24.90;1.00
9393;DHT22;4736;52.508;13.422;2022-07-29T19:09:46;24.90;1.00
9393;DHT22;4736;52.508;13.422;2022-07-29T19:12:50;24.80;1.00
9393;DHT22;4736;52.508;13.422;2022-07-29T19:15:53;24.80;1.00
9393;DHT22;4736;52.508;13.422;2022-07-29T19:18:57;24.70;1.00
9393;DHT22;4736;52.508;13.422;2022-07-29T19:22:01;24.50;1.00
9393;DHT22;4736;52.508;13.422;2022-07-29T19:25:05;24.50;1.00
9393;DHT22;4736;52.508;13.422;2022-07-29T19:28:08;24.50;1.00
9393;DHT22;4736;52.508;13.422;2022-07-29T19:31:11;24.40;1.00
9393;DHT22;4736;52.508;13.422;2022-07-29T19:34:16;24.30;1.00
9393;DHT22;4736;52.508;13.422;2022-07-29T19:37:19;24.30;1.00
9393;DHT22;4736;52.508;13.422;2022-07-29T19:40:22;24.20;1.00
9393;DHT22;4736;52.508;13.422;2022-07-29T19:43:26;24.10;1.00
9393;DHT22;4736;52.508;13.422;2022-07-29T19:46:49;24.10;1.00
9393;DHT22;4736;52.508;13.422;2022-07-29T19:49:53;24.00;1.00
9393;DHT22;4736;52.508;13.422;2022-07-29T19:52:57;24.00;1.00
9393;DHT22;4736;52.508;13.422;2022-07-29T19:56:00;23.90;1.00
9393;DHT22;4736;52.508;13.422;2022-07-29T19:59:04;23.70;1.00
9393;DHT22;4736;52.508;13.422;2022-07-29T20:02:08;23.70;1.00
9393;DHT22;4736;52.508;13.422;2022-07-29T20:05:13;23.60;1.00
9393;DHT22;4736;52.508;13.422;2022-07-29T20:08:16;23.50;1.00
9393;DHT22;4736;52.508;13.422;2022-07-29T20:11:19;23.40;1.00
9393;DHT22;4736;52.508;13.422;2022-07-29T20:14:22;23.30;1.00